< < Back
Terminal Aerodrome Forecast


Current Version              Previous Versions:   1  2  3  4  5  6  7  8  9  

Terminal Aerodrome Forecast

207
FTUS42 KGSP 090536
TAFHKY
TAF
KHKY 090536Z 0906/1006 28003KT P6SM FEW050 BKN090
     FM091000 28005KT P6SM SCT080
     FM091500 28009G16KT P6SM BKN050
     FM092300 30006KT P6SM SCT050 BKN080=

Latest METAR

738
SAUS70 KWBC 100000 RRH
MTRHKY
METAR KHKY 092353Z 29010KT 10SM CLR M02/M12 A2981 RMK AO2 SLP093
T10221122 10017 21022 51032


USA.gov is the U.S. government's official web portal to all federal, state and local government web resources and services.